Time;durP1;ratioP1;P1;durP2;ratioP2;P2;SDS_P1;SDS_P2;PMS_P1;PMS_P2;Temp;Humidity;BMP_temperature;BMP_pressure;BME280_temperature;BME280_humidity;BME280_pressure;Samples;Min_cycle;Max_cycle;Signal;HPM_P1;HPM_P2
2024/03/24 00:01:03;;;;;;;10.07;1.50;;;4.60;99.90;;;;;;5066398;28;20806;-73
2024/03/24 00:03:29;;;;;;;6.10;1.10;;;4.60;99.90;;;;;;5060817;28;20496;-73
2024/03/24 00:05:56;;;;;;;6.27;1.13;;;4.60;99.90;;;;;;5066400;28;20594;-73
2024/03/24 00:08:22;;;;;;;7.67;1.60;;;4.70;99.90;;;;;;5055843;28;20449;-72
2024/03/24 00:10:49;;;;;;;6.50;1.17;;;4.70;99.90;;;;;;5055709;28;20455;-73
2024/03/24 00:13:16;;;;;;;6.93;1.20;;;4.70;99.90;;;;;;5052486;28;20467;-73
2024/03/24 00:15:44;;;;;;;9.30;1.60;;;4.70;99.90;;;;;;5056719;28;20439;-75
2024/03/24 00:18:10;;;;;;;9.03;1.20;;;4.70;99.90;;;;;;5044246;28;20453;-73
2024/03/24 00:20:37;;;;;;;7.80;1.43;;;4.60;99.90;;;;;;5049704;28;20449;-74
2024/03/24 00:23:03;;;;;;;7.50;1.30;;;4.60;99.90;;;;;;5048206;28;20785;-73
2024/03/24 00:25:30;;;;;;;6.70;0.90;;;4.60;99.90;;;;;;5053557;28;20568;-73
2024/03/24 00:27:56;;;;;;;6.77;1.30;;;4.50;99.90;;;;;;5046954;28;20454;-72
2024/03/24 00:30:23;;;;;;;6.83;1.00;;;4.50;99.90;;;;;;5059147;28;20531;-73
2024/03/24 00:32:52;;;;;;;6.73;1.03;;;4.60;99.90;;;;;;5070443;28;20988;-73
2024/03/24 00:35:19;;;;;;;6.63;1.00;;;4.50;99.90;;;;;;5051183;28;20456;-72
2024/03/24 00:37:45;;;;;;;6.70;1.13;;;4.50;99.90;;;;;;5052594;28;20474;-73
2024/03/24 00:40:13;;;;;;;8.50;1.13;;;4.40;99.90;;;;;;5059314;28;20827;-74
2024/03/24 00:42:39;;;;;;;7.30;1.50;;;4.30;99.90;;;;;;5047892;28;20529;-73
2024/03/24 00:45:08;;;;;;;6.77;1.17;;;4.40;99.90;;;;;;5050010;28;20859;-74
2024/03/24 00:47:34;;;;;;;7.43;1.50;;;4.40;99.90;;;;;;5051805;28;20493;-75
2024/03/24 00:50:02;;;;;;;6.43;0.93;;;4.50;99.90;;;;;;5049882;28;20470;-74
2024/03/24 00:52:28;;;;;;;6.03;1.00;;;4.50;99.90;;;;;;5052576;28;20476;-73
2024/03/24 00:54:55;;;;;;;8.50;1.30;;;4.50;99.90;;;;;;5052939;28;20924;-73
2024/03/24 00:57:21;;;;;;;8.57;1.13;;;4.40;99.90;;;;;;5049000;28;20942;-73
2024/03/24 00:59:48;;;;;;;6.80;1.23;;;4.40;99.90;;;;;;5051943;28;20450;-73
2024/03/24 01:02:14;;;;;;;7.40;1.17;;;4.50;99.90;;;;;;5049511;28;20444;-73
2024/03/24 01:04:41;;;;;;;9.70;1.40;;;4.50;99.90;;;;;;5046902;28;20443;-74
2024/03/24 01:07:08;;;;;;;6.83;1.10;;;4.60;99.90;;;;;;5051436;28;20476;-75
2024/03/24 01:09:35;;;;;;;7.83;1.07;;;4.50;99.90;;;;;;5050938;28;20973;-73
2024/03/24 01:12:01;;;;;;;7.53;1.00;;;4.50;99.90;;;;;;5052257;28;20953;-73
2024/03/24 01:14:30;;;;;;;8.20;1.27;;;4.50;99.90;;;;;;5047357;28;20999;-73
2024/03/24 01:16:56;;;;;;;6.90;0.90;;;4.50;99.90;;;;;;5048036;28;20579;-73
2024/03/24 01:19:23;;;;;;;6.67;1.00;;;4.40;99.90;;;;;;5053433;28;20460;-73
2024/03/24 01:21:49;;;;;;;8.77;1.20;;;4.40;99.90;;;;;;5049438;28;20490;-73
2024/03/24 01:24:17;;;;;;;6.73;1.03;;;4.30;99.90;;;;;;5049508;28;20530;-73
2024/03/24 01:26:43;;;;;;;7.70;1.10;;;4.30;99.90;;;;;;5072076;28;20479;-73
2024/03/24 01:29:12;;;;;;;5.90;0.70;;;4.30;99.90;;;;;;5051607;28;20450;-74
2024/03/24 01:31:38;;;;;;;5.90;0.87;;;4.40;99.90;;;;;;5048419;28;20526;-74
2024/03/24 01:34:05;;;;;;;7.50;1.00;;;4.30;99.90;;;;;;5052593;28;20471;-74
2024/03/24 01:36:31;;;;;;;7.13;1.03;;;4.30;99.90;;;;;;5076581;28;20449;-74
2024/03/24 01:38:58;;;;;;;6.60;1.10;;;4.30;99.90;;;;;;5048039;28;20524;-73
2024/03/24 01:41:27;;;;;;;6.70;1.20;;;4.20;99.90;;;;;;5046543;28;20456;-74
2024/03/24 01:43:54;;;;;;;6.77;0.93;;;4.30;99.90;;;;;;5052845;28;20476;-74
2024/03/24 01:46:20;;;;;;;6.57;1.00;;;4.20;99.90;;;;;;5051940;28;20483;-74
2024/03/24 01:48:47;;;;;;;6.47;1.10;;;4.30;99.90;;;;;;5051761;28;20455;-74
2024/03/24 01:51:14;;;;;;;6.00;0.80;;;4.40;99.90;;;;;;5051116;28;21067;-74
2024/03/24 01:53:42;;;;;;;6.50;0.80;;;4.40;99.90;;;;;;5044822;28;20472;-73
2024/03/24 01:56:08;;;;;;;6.20;0.90;;;4.30;99.90;;;;;;5046316;28;20451;-73
2024/03/24 01:58:37;;;;;;;6.20;0.73;;;4.30;99.90;;;;;;5046201;28;20521;-74
2024/03/24 02:01:05;;;;;;;5.90;0.90;;;4.30;99.90;;;;;;5045839;28;20559;-75
2024/03/24 02:03:32;;;;;;;6.93;0.73;;;4.30;99.90;;;;;;5045250;28;20477;-73
2024/03/24 02:05:58;;;;;;;6.60;2.33;;;4.30;99.90;;;;;;5045568;28;21084;-74
2024/03/24 02:08:25;;;;;;;6.40;0.73;;;4.30;99.90;;;;;;5046011;28;20460;-74
2024/03/24 02:10:51;;;;;;;6.00;0.90;;;4.20;99.90;;;;;;5043854;28;20464;-74
2024/03/24 02:13:18;;;;;;;5.73;0.70;;;4.20;99.90;;;;;;5043177;28;20474;-74
2024/03/24 02:15:48;;;;;;;6.60;1.20;;;4.20;99.90;;;;;;5044592;28;21184;-74
2024/03/24 02:18:15;;;;;;;6.20;0.90;;;4.10;99.90;;;;;;5045394;28;20800;-74
2024/03/24 02:20:41;;;;;;;6.20;0.80;;;4.10;99.90;;;;;;5044444;28;20459;-74
2024/03/24 02:23:10;;;;;;;6.53;0.90;;;4.10;99.90;;;;;;5043341;28;20911;-74
2024/03/24 02:25:36;;;;;;;7.23;0.80;;;4.00;99.90;;;;;;5046380;28;20452;-74
2024/03/24 02:28:03;;;;;;;6.93;1.00;;;4.00;99.90;;;;;;5046502;28;20483;-74
2024/03/24 02:30:29;;;;;;;7.40;0.80;;;4.00;99.90;;;;;;5047037;28;20866;-73
2024/03/24 02:32:56;;;;;;;6.00;0.80;;;4.00;99.90;;;;;;5045266;28;20482;-74
2024/03/24 02:35:24;;;;;;;7.30;1.10;;;4.00;99.90;;;;;;5046036;28;21004;-74
2024/03/24 02:37:51;;;;;;;6.10;0.90;;;3.90;99.90;;;;;;5045112;28;20444;-74
2024/03/24 02:40:19;;;;;;;7.07;1.00;;;4.00;99.90;;;;;;5045178;28;21187;-73
2024/03/24 02:42:46;;;;;;;6.83;1.10;;;4.00;99.90;;;;;;5044278;28;20472;-73
2024/03/24 02:45:12;;;;;;;7.70;0.93;;;4.00;99.90;;;;;;5046637;28;20448;-73
2024/03/24 02:47:39;;;;;;;5.90;0.80;;;4.00;99.90;;;;;;5045652;28;20480;-73
2024/03/24 02:50:06;;;;;;;6.20;0.83;;;3.90;99.90;;;;;;5046316;28;20460;-73
2024/03/24 02:52:33;;;;;;;6.13;0.80;;;3.90;99.90;;;;;;5045122;28;20476;-73
2024/03/24 02:54:59;;;;;;;7.23;0.80;;;3.90;99.90;;;;;;5045507;28;20462;-74
2024/03/24 02:57:28;;;;;;;8.17;1.00;;;3.80;99.90;;;;;;5046522;28;20825;-73
2024/03/24 02:59:54;;;;;;;7.00;0.80;;;3.80;99.90;;;;;;5045846;28;20455;-73
2024/03/24 03:02:20;;;;;;;6.87;0.90;;;3.90;99.90;;;;;;5045591;28;20471;-73
2024/03/24 03:04:46;;;;;;;6.00;0.70;;;3.90;99.90;;;;;;5045443;28;20460;-73
2024/03/24 03:07:13;;;;;;;7.73;0.80;;;4.10;99.90;;;;;;5045958;28;20587;-73
2024/03/24 03:09:40;;;;;;;6.10;1.13;;;4.10;99.90;;;;;;5045319;28;20475;-73
2024/03/24 03:12:07;;;;;;;7.50;1.03;;;4.10;99.90;;;;;;5044894;28;20462;-73
2024/03/24 03:14:34;;;;;;;6.63;0.77;;;4.00;99.90;;;;;;5045780;28;20458;-74
2024/03/24 03:17:01;;;;;;;6.27;0.80;;;4.10;99.90;;;;;;5046352;28;20480;-73
2024/03/24 03:19:27;;;;;;;6.50;0.83;;;4.00;99.90;;;;;;5045635;28;20771;-73
2024/03/24 03:21:54;;;;;;;7.47;1.03;;;3.90;99.90;;;;;;5045434;28;20559;-73
2024/03/24 03:24:20;;;;;;;7.60;0.90;;;3.80;99.90;;;;;;5045343;28;20485;-73
2024/03/24 03:26:47;;;;;;;8.20;1.17;;;3.80;99.90;;;;;;5045832;28;20637;-74
2024/03/24 03:29:13;;;;;;;6.00;0.60;;;3.60;99.90;;;;;;5045999;28;20460;-73
2024/03/24 03:31:41;;;;;;;7.03;0.77;;;3.60;99.90;;;;;;5045125;28;20463;-74
2024/03/24 03:34:08;;;;;;;11.20;1.67;;;3.60;99.90;;;;;;5044941;28;20865;-72
2024/03/24 03:36:34;;;;;;;6.00;0.90;;;3.60;99.90;;;;;;5045710;28;20980;-73
2024/03/24 03:39:00;;;;;;;6.50;0.80;;;3.60;99.90;;;;;;5045871;28;20460;-74
2024/03/24 03:41:27;;;;;;;10.20;1.20;;;3.70;99.90;;;;;;5045202;28;20470;-74
2024/03/24 03:43:53;;;;;;;6.20;0.80;;;3.60;99.90;;;;;;5044486;28;20476;-73
2024/03/24 03:46:20;;;;;;;8.60;1.03;;;3.60;99.90;;;;;;5044714;28;20487;-73
2024/03/24 03:48:49;;;;;;;6.50;0.83;;;3.70;99.90;;;;;;5044467;28;20467;-73
2024/03/24 03:51:19;;;;;;;8.13;0.90;;;3.70;99.90;;;;;;5044599;28;20451;-73
2024/03/24 03:53:46;;;;;;;6.67;0.87;;;3.70;99.90;;;;;;5043797;28;20538;-72
2024/03/24 03:56:14;;;;;;;5.97;0.90;;;3.70;99.90;;;;;;5044924;28;20450;-72
2024/03/24 03:58:40;;;;;;;6.47;1.00;;;3.80;99.90;;;;;;5044915;28;20511;-72
2024/03/24 04:01:07;;;;;;;6.80;1.00;;;3.90;99.90;;;;;;5044119;28;20459;-72
2024/03/24 04:03:35;;;;;;;7.77;1.10;;;4.00;99.90;;;;;;5043270;28;20468;-72
2024/03/24 04:06:05;;;;;;;7.53;1.10;;;4.00;99.90;;;;;;5044551;28;20533;-72
2024/03/24 04:08:31;;;;;;;7.27;0.83;;;4.00;99.90;;;;;;5044580;28;20455;-74
2024/03/24 04:10:58;;;;;;;6.00;0.93;;;4.00;99.90;;;;;;5044606;28;20570;-72
2024/03/24 04:13:25;;;;;;;7.57;0.80;;;4.00;99.90;;;;;;5041942;28;20479;-72
2024/03/24 04:15:52;;;;;;;6.07;0.67;;;4.00;99.90;;;;;;5045684;28;20825;-72
2024/03/24 04:18:18;;;;;;;6.30;0.97;;;4.00;99.90;;;;;;5045323;28;21006;-73
2024/03/24 04:20:45;;;;;;;6.90;1.00;;;4.10;99.90;;;;;;5045910;28;20455;-74
2024/03/24 04:23:12;;;;;;;9.07;0.93;;;4.10;99.90;;;;;;5044246;28;20472;-72
2024/03/24 04:25:39;;;;;;;5.80;0.60;;;4.10;99.90;;;;;;5045717;28;20460;-74
2024/03/24 04:28:05;;;;;;;5.90;0.57;;;4.00;99.90;;;;;;5045295;28;20487;-72
2024/03/24 04:30:33;;;;;;;10.43;1.00;;;4.00;99.90;;;;;;5048493;28;20870;-72
2024/03/24 04:32:59;;;;;;;7.23;0.90;;;4.00;99.90;;;;;;5049538;28;21093;-72
2024/03/24 04:35:27;;;;;;;6.00;0.63;;;3.90;99.90;;;;;;5049296;28;20825;-72
2024/03/24 04:37:53;;;;;;;5.70;0.70;;;3.90;99.90;;;;;;5049002;28;20452;-73
2024/03/24 04:40:21;;;;;;;6.33;0.70;;;3.90;99.90;;;;;;5048648;28;21026;-73
2024/03/24 04:42:48;;;;;;;5.80;0.70;;;3.90;99.90;;;;;;5047607;28;20472;-72
2024/03/24 04:45:16;;;;;;;8.23;0.83;;;3.90;99.90;;;;;;5048219;28;20459;-73
2024/03/24 04:47:43;;;;;;;6.53;0.90;;;3.90;99.90;;;;;;5048591;28;20541;-72
2024/03/24 04:50:09;;;;;;;5.70;0.70;;;3.90;99.90;;;;;;5048714;28;20452;-72
2024/03/24 04:52:36;;;;;;;5.80;0.70;;;3.90;99.90;;;;;;5047366;28;20474;-73
2024/03/24 04:55:02;;;;;;;5.90;0.70;;;3.80;99.90;;;;;;5047983;28;20448;-72
2024/03/24 04:57:30;;;;;;;6.27;0.80;;;3.80;99.90;;;;;;5049043;28;20448;-73
2024/03/24 04:59:56;;;;;;;6.70;0.80;;;3.70;99.90;;;;;;5048412;28;20444;-71
2024/03/24 05:02:23;;;;;;;5.93;0.83;;;3.70;99.90;;;;;;5047739;28;20844;-74
2024/03/24 05:04:50;;;;;;;6.50;0.70;;;3.70;99.90;;;;;;5046671;28;20836;-73
2024/03/24 05:07:17;;;;;;;5.87;0.80;;;3.70;99.90;;;;;;5047299;28;20510;-71
2024/03/24 05:09:43;;;;;;;7.30;1.07;;;3.60;99.90;;;;;;5047425;28;20856;-71
2024/03/24 05:12:10;;;;;;;5.73;0.70;;;3.50;99.90;;;;;;5046526;28;20747;-72
2024/03/24 05:14:38;;;;;;;6.20;0.80;;;3.50;99.90;;;;;;5046682;28;20455;-71
2024/03/24 05:17:05;;;;;;;6.97;0.90;;;3.50;99.90;;;;;;5046742;28;20463;-72
2024/03/24 05:19:32;;;;;;;6.90;1.10;;;3.40;99.90;;;;;;5047037;28;20830;-71
2024/03/24 05:21:59;;;;;;;6.20;0.90;;;3.40;99.90;;;;;;5046095;28;20521;-71
2024/03/24 05:24:27;;;;;;;7.10;0.90;;;3.40;99.90;;;;;;5046471;28;20451;-71
2024/03/24 05:26:54;;;;;;;5.83;0.73;;;3.40;99.90;;;;;;5046676;28;20916;-71
2024/03/24 05:29:20;;;;;;;6.00;0.80;;;3.50;99.90;;;;;;5046586;28;20448;-71
2024/03/24 05:31:55;;;;;;;6.30;0.80;;;3.50;99.90;;;;;;5046178;28;20501;-71
2024/03/24 05:34:21;;;;;;;5.70;0.50;;;3.50;99.90;;;;;;5045484;28;20471;-71
2024/03/24 05:36:48;;;;;;;5.80;0.70;;;3.40;99.90;;;;;;5047825;28;20446;-71
2024/03/24 05:39:16;;;;;;;7.20;0.70;;;3.40;99.90;;;;;;5047989;28;20463;-71
2024/03/24 05:41:43;;;;;;;6.57;1.00;;;3.50;99.90;;;;;;5044964;28;20964;-71
2024/03/24 05:44:09;;;;;;;6.63;0.90;;;3.50;99.90;;;;;;5046701;28;20476;-71
2024/03/24 05:46:36;;;;;;;6.97;0.90;;;3.50;99.90;;;;;;5047778;28;20456;-72
2024/03/24 05:49:03;;;;;;;7.03;0.80;;;3.50;99.90;;;;;;5047374;28;20467;-72
2024/03/24 05:51:30;;;;;;;6.40;0.80;;;3.60;99.90;;;;;;5047420;28;20490;-71
2024/03/24 05:53:57;;;;;;;8.00;1.00;;;3.60;99.90;;;;;;5046234;28;20491;-71
2024/03/24 05:56:24;;;;;;;6.60;1.23;;;3.60;99.90;;;;;;5047083;28;20737;-71
2024/03/24 05:58:50;;;;;;;6.13;0.93;;;3.70;99.90;;;;;;5045798;28;20448;-71
2024/03/24 06:01:17;;;;;;;7.37;1.10;;;3.90;99.90;;;;;;5047403;28;20476;-71
2024/03/24 06:03:43;;;;;;;6.97;0.70;;;4.00;99.90;;;;;;5046746;28;20484;-70
2024/03/24 06:06:12;;;;;;;6.83;1.07;;;4.10;99.90;;;;;;5047259;28;20672;-71
2024/03/24 06:08:38;;;;;;;6.07;0.87;;;4.10;99.90;;;;;;5047263;28;20872;-70
2024/03/24 06:11:07;;;;;;;7.27;1.03;;;4.10;99.90;;;;;;5047286;28;20949;-70
2024/03/24 06:13:32;;;;;;;6.33;0.90;;;4.10;99.90;;;;;;5046473;28;20476;-70
2024/03/24 06:16:00;;;;;;;6.00;0.90;;;4.10;99.90;;;;;;5050679;28;20460;-71
2024/03/24 06:18:26;;;;;;;6.17;0.90;;;3.90;99.90;;;;;;5051413;28;20444;-71
2024/03/24 06:20:53;;;;;;;6.47;1.13;;;3.90;99.90;;;;;;5052861;28;20464;-72
2024/03/24 06:23:21;;;;;;;6.70;1.40;;;3.90;99.90;;;;;;5051586;28;21026;-71
2024/03/24 06:25:48;;;;;;;6.20;0.90;;;4.00;99.90;;;;;;5052787;28;20448;-70
2024/03/24 06:28:15;;;;;;;7.13;1.13;;;4.10;99.90;;;;;;5052666;28;20484;-73
2024/03/24 06:30:42;;;;;;;6.77;1.10;;;4.20;99.90;;;;;;5054626;28;20452;-71
2024/03/24 06:33:08;;;;;;;6.53;0.90;;;4.30;99.90;;;;;;5050181;28;20475;-71
2024/03/24 06:35:36;;;;;;;7.77;1.20;;;4.40;99.90;;;;;;5050968;28;20467;-71
2024/03/24 06:38:02;;;;;;;7.80;1.30;;;4.50;99.90;;;;;;5050562;28;20970;-72
2024/03/24 06:40:31;;;;;;;7.90;1.50;;;4.50;99.90;;;;;;5046667;28;20483;-73
2024/03/24 06:42:59;;;;;;;8.50;1.47;;;4.60;99.90;;;;;;5043693;28;20536;-71
2024/03/24 06:45:29;;;;;;;7.23;1.50;;;4.70;99.90;;;;;;5045948;28;20970;-70
2024/03/24 06:47:55;;;;;;;6.60;1.20;;;4.80;99.90;;;;;;5045361;28;20537;-72
2024/03/24 06:50:22;;;;;;;6.77;1.10;;;4.90;99.90;;;;;;5045423;28;20460;-70
2024/03/24 06:52:52;;;;;;;6.97;1.20;;;5.00;99.90;;;;;;5044199;28;20475;-73
2024/03/24 06:55:19;;;;;;;9.13;1.63;;;5.20;99.90;;;;;;5045046;28;20711;-70
2024/03/24 06:57:46;;;;;;;8.00;1.40;;;5.30;99.90;;;;;;5045339;28;20445;-72
2024/03/24 07:00:14;;;;;;;7.10;1.60;;;5.40;99.90;;;;;;5045473;28;20449;-71
2024/03/24 07:02:40;;;;;;;7.47;1.67;;;5.50;99.90;;;;;;5045359;28;20952;-71
2024/03/24 07:05:08;;;;;;;7.07;1.43;;;5.70;99.90;;;;;;5045057;28;20554;-71
2024/03/24 07:07:35;;;;;;;7.50;1.47;;;5.80;99.90;;;;;;5045504;28;20483;-72
2024/03/24 07:10:03;;;;;;;6.30;1.20;;;5.60;99.90;;;;;;5044892;28;20448;-72
2024/03/24 07:12:29;;;;;;;8.63;1.20;;;5.50;99.90;;;;;;5045277;28;20478;-71
2024/03/24 07:14:57;;;;;;;7.20;1.67;;;5.50;99.90;;;;;;5045934;28;20470;-71
2024/03/24 07:17:23;;;;;;;7.77;2.10;;;5.40;99.90;;;;;;5046321;28;20954;-72
2024/03/24 07:19:50;;;;;;;7.37;1.23;;;5.30;99.90;;;;;;5046613;28;20518;-71
2024/03/24 07:22:16;;;;;;;6.23;0.97;;;5.20;99.90;;;;;;5045864;28;20455;-72
2024/03/24 07:24:43;;;;;;;6.93;1.13;;;5.20;99.90;;;;;;5045877;28;20448;-72
2024/03/24 07:27:09;;;;;;;6.30;1.10;;;5.20;99.90;;;;;;5046053;28;20492;-73
2024/03/24 07:29:36;;;;;;;7.63;1.40;;;5.30;99.90;;;;;;5046649;28;20478;-73
2024/03/24 07:32:04;;;;;;;6.43;0.97;;;5.40;99.90;;;;;;5045882;28;20451;-71
2024/03/24 07:34:31;;;;;;;6.43;1.00;;;5.50;99.90;;;;;;5045932;28;20870;-71
2024/03/24 07:36:57;;;;;;;6.50;1.20;;;5.50;99.90;;;;;;5046434;28;20460;-73
2024/03/24 07:39:25;;;;;;;6.93;1.30;;;5.60;99.90;;;;;;5046486;28;21188;-72
2024/03/24 07:41:51;;;;;;;5.73;0.80;;;5.70;99.90;;;;;;5045529;28;20463;-71
2024/03/24 07:44:19;;;;;;;6.40;1.07;;;5.70;99.90;;;;;;5045463;28;20989;-70
2024/03/24 07:46:45;;;;;;;6.67;1.00;;;5.90;99.90;;;;;;5045984;28;20460;-71
2024/03/24 07:49:13;;;;;;;7.87;1.37;;;5.90;99.90;;;;;;5046082;28;20471;-71
2024/03/24 07:51:39;;;;;;;6.67;1.07;;;5.90;99.90;;;;;;5045337;28;20903;-71
2024/03/24 07:54:06;;;;;;;5.97;0.90;;;6.00;99.90;;;;;;5045364;28;20476;-71
2024/03/24 07:56:33;;;;;;;7.13;0.90;;;6.20;99.90;;;;;;5045529;28;20458;-72
2024/03/24 07:59:00;;;;;;;6.30;0.90;;;6.40;99.90;;;;;;5045881;28;20464;-70
2024/03/24 08:01:26;;;;;;;6.30;0.90;;;6.60;99.90;;;;;;5044748;28;20448;-71
2024/03/24 08:03:54;;;;;;;6.17;0.73;;;6.80;99.90;;;;;;5044678;28;20479;-72
2024/03/24 08:06:23;;;;;;;8.97;1.20;;;6.90;99.90;;;;;;5047623;28;20456;-71
2024/03/24 08:08:50;;;;;;;6.00;0.90;;;7.10;99.90;;;;;;5048191;28;20489;-72
2024/03/24 08:11:16;;;;;;;6.40;1.10;;;7.20;99.90;;;;;;5048356;28;20448;-70
2024/03/24 08:13:42;;;;;;;7.70;1.30;;;7.20;99.90;;;;;;5047715;28;20496;-72
2024/03/24 08:16:08;;;;;;;6.87;1.00;;;7.20;99.90;;;;;;5047028;28;20855;-73
2024/03/24 08:18:37;;;;;;;6.00;0.80;;;7.10;99.90;;;;;;5042560;28;20455;-72
2024/03/24 08:21:04;;;;;;;6.37;1.10;;;7.20;99.90;;;;;;5048139;28;20458;-71
2024/03/24 08:23:32;;;;;;;5.67;0.90;;;7.30;99.90;;;;;;5047626;28;21068;-71
2024/03/24 08:25:58;;;;;;;9.17;0.80;;;7.70;99.90;;;;;;5048114;28;20460;-71
2024/03/24 08:28:26;;;;;;;6.43;0.87;;;8.10;99.90;;;;;;5047809;28;20499;-73
2024/03/24 08:30:52;;;;;;;6.17;1.00;;;8.10;99.90;;;;;;5048083;28;20451;-70
2024/03/24 08:33:19;;;;;;;5.67;0.73;;;7.70;99.90;;;;;;5045230;28;20495;-70
2024/03/24 08:35:45;;;;;;;7.27;0.60;;;7.70;99.90;;;;;;5049078;28;20467;-71
2024/03/24 08:38:12;;;;;;;6.00;0.83;;;7.70;99.90;;;;;;5049131;28;20822;-70
2024/03/24 08:40:40;;;;;;;6.07;0.87;;;7.70;99.90;;;;;;5049219;28;20580;-72
2024/03/24 08:43:07;;;;;;;6.50;0.80;;;7.70;99.90;;;;;;5047362;28;20471;-70
2024/03/24 08:45:35;;;;;;;7.00;0.80;;;7.90;99.90;;;;;;5048975;28;20448;-71
2024/03/24 08:48:02;;;;;;;8.90;0.83;;;8.10;99.90;;;;;;5048815;28;20553;-69
2024/03/24 08:50:28;;;;;;;6.73;1.03;;;8.00;99.90;;;;;;5048902;28;20954;-70
2024/03/24 08:52:55;;;;;;;6.77;0.93;;;7.90;99.90;;;;;;5048220;28;20483;-71
2024/03/24 08:55:21;;;;;;;6.33;1.00;;;8.10;99.90;;;;;;5048747;28;20448;-71
2024/03/24 08:57:50;;;;;;;6.57;1.13;;;8.20;99.90;;;;;;5048906;28;20520;-72
2024/03/24 09:00:16;;;;;;;7.00;1.30;;;8.10;99.90;;;;;;5048856;28;20451;-70
2024/03/24 09:02:43;;;;;;;8.00;1.52;;;8.00;99.90;;;;;;5046901;28;20497;-72
2024/03/24 09:05:09;;;;;;;8.30;2.53;;;7.80;99.60;;;;;;5047854;28;20221;-71
2024/03/24 09:07:36;;;;;;;9.63;1.70;;;7.90;99.90;;;;;;5048276;28;20488;-72
2024/03/24 09:10:03;;;;;;;7.80;1.53;;;8.10;99.20;;;;;;5048644;28;20509;-71
2024/03/24 09:12:30;;;;;;;9.60;1.50;;;7.80;98.30;;;;;;5051541;28;20480;-70
2024/03/24 09:14:57;;;;;;;7.30;1.53;;;7.80;99.90;;;;;;5060601;28;20447;-70
2024/03/24 09:17:24;;;;;;;7.80;1.40;;;7.70;98.20;;;;;;5055527;28;20502;-70
2024/03/24 09:19:51;;;;;;;6.80;1.20;;;7.50;99.10;;;;;;5063103;28;20442;-70
2024/03/24 09:22:18;;;;;;;7.50;2.03;;;7.40;99.40;;;;;;5059794;28;20530;-71
2024/03/24 09:24:45;;;;;;;9.40;1.90;;;7.40;98.60;;;;;;5051881;28;20451;-73
2024/03/24 09:27:12;;;;;;;7.40;1.73;;;7.50;99.50;;;;;;5051467;28;20819;-71
2024/03/24 09:29:38;;;;;;;8.00;1.50;;;7.60;99.00;;;;;;5047204;28;20468;-72
2024/03/24 09:32:06;;;;;;;7.10;1.70;;;7.80;98.80;;;;;;5046214;28;20818;-72
2024/03/24 09:34:32;;;;;;;9.30;1.70;;;7.60;98.30;;;;;;5051733;28;20481;-70
2024/03/24 09:36:59;;;;;;;7.43;1.80;;;7.60;98.40;;;;;;5046437;28;20571;-71
2024/03/24 09:39:25;;;;;;;7.47;1.43;;;7.50;99.00;;;;;;5046869;28;20453;-72
2024/03/24 09:41:53;;;;;;;11.10;2.10;;;7.50;99.40;;;;;;5045889;28;20457;-71
2024/03/24 09:44:21;;;;;;;9.83;1.70;;;7.50;99.70;;;;;;5057195;28;21260;-71
2024/03/24 09:46:48;;;;;;;9.40;2.23;;;7.60;99.30;;;;;;5056436;28;20461;-70
2024/03/24 09:49:16;;;;;;;8.30;1.57;;;7.80;99.90;;;;;;5047655;28;20487;-72
2024/03/24 09:51:45;;;;;;;7.93;1.63;;;7.80;99.70;;;;;;5040093;28;20624;-71
2024/03/24 09:54:13;;;;;;;8.80;2.10;;;7.80;99.00;;;;;;5048782;28;20939;-72
2024/03/24 09:56:41;;;;;;;6.43;1.40;;;7.90;99.90;;;;;;5055777;28;20452;-70
2024/03/24 09:59:08;;;;;;;7.67;1.67;;;7.90;99.50;;;;;;5051109;28;20446;-73
2024/03/24 10:01:38;;;;;;;9.77;2.20;;;7.90;99.90;;;;;;5045753;28;20443;-70
2024/03/24 10:04:05;;;;;;;8.20;1.70;;;7.90;99.90;;;;;;5049134;28;20467;-73
2024/03/24 10:06:34;;;;;;;8.47;1.60;;;7.80;99.90;;;;;;5049418;28;20967;-72
2024/03/24 10:09:02;;;;;;;7.00;1.67;;;8.10;99.40;;;;;;5049981;28;20482;-72
2024/03/24 10:11:29;;;;;;;8.10;1.87;;;8.20;99.20;;;;;;5037880;28;20452;-71
2024/03/24 10:13:57;;;;;;;7.77;1.53;;;8.00;98.40;;;;;;5045617;28;20502;-71
2024/03/24 10:16:23;;;;;;;6.83;1.67;;;7.90;98.50;;;;;;5045941;28;20966;-72
2024/03/24 10:18:50;;;;;;;8.83;1.30;;;7.80;98.90;;;;;;5049917;28;21051;-72
2024/03/24 10:21:18;;;;;;;7.90;1.80;;;7.70;98.70;;;;;;5034748;28;20457;-70
2024/03/24 10:23:47;;;;;;;9.00;1.37;;;7.90;99.60;;;;;;5046528;28;20468;-71
2024/03/24 10:26:18;;;;;;;8.37;1.80;;;8.20;99.30;;;;;;5047464;28;20586;-70
2024/03/24 10:28:45;;;;;;;7.43;1.30;;;8.20;98.90;;;;;;5046561;28;20472;-69
2024/03/24 10:31:11;;;;;;;8.20;1.50;;;8.10;98.20;;;;;;5044241;28;20456;-69
2024/03/24 10:33:39;;;;;;;7.40;1.57;;;8.00;98.20;;;;;;5046438;28;20480;-71
2024/03/24 10:36:06;;;;;;;9.20;2.23;;;7.80;98.70;;;;;;5046765;28;20456;-71
2024/03/24 10:38:34;;;;;;;8.87;2.20;;;7.80;98.70;;;;;;5046816;28;20455;-70
2024/03/24 10:41:02;;;;;;;7.23;1.70;;;7.90;99.00;;;;;;5046560;28;20502;-71
2024/03/24 10:43:29;;;;;;;6.60;1.40;;;8.00;99.60;;;;;;5044446;28;20479;-71
2024/03/24 10:45:56;;;;;;;7.67;1.33;;;8.20;98.50;;;;;;5045231;28;20448;-71
2024/03/24 10:48:30;;;;;;;8.03;1.70;;;8.10;98.10;;;;;;5045818;28;20501;-69
2024/03/24 10:50:58;;;;;;;8.13;1.40;;;8.10;98.20;;;;;;5045533;28;20452;-70
2024/03/24 10:53:27;;;;;;;10.57;1.93;;;7.90;98.00;;;;;;5044566;28;20476;-69
2024/03/24 10:55:56;;;;;;;7.47;1.80;;;7.90;98.50;;;;;;5051699;28;20451;-68
2024/03/24 10:58:24;;;;;;;9.43;2.10;;;8.00;98.90;;;;;;5048267;28;21056;-69
2024/03/24 11:00:52;;;;;;;11.63;2.10;;;8.00;98.10;;;;;;5050624;28;20449;-69
2024/03/24 11:03:21;;;;;;;8.73;1.57;;;8.00;98.80;;;;;;5046048;28;21011;-70
2024/03/24 11:05:49;;;;;;;9.63;1.90;;;8.00;98.10;;;;;;5047433;28;21014;-70
2024/03/24 11:08:17;;;;;;;8.27;1.70;;;8.00;97.70;;;;;;5049084;28;20479;-68
2024/03/24 11:10:46;;;;;;;8.30;1.83;;;8.20;97.20;;;;;;5045829;28;20470;-69
2024/03/24 11:13:15;;;;;;;8.00;1.90;;;8.50;97.40;;;;;;5044607;28;20832;-70
2024/03/24 11:15:46;;;;;;;10.10;2.50;;;8.70;97.00;;;;;;5045996;28;20453;-70
2024/03/24 11:18:24;;;;;;;6.90;1.57;;;8.60;96.50;;;;;;5045898;28;20452;-70
2024/03/24 11:20:51;;;;;;;8.70;1.93;;;8.50;97.10;;;;;;5045709;28;20475;-70
2024/03/24 11:23:22;;;;;;;6.97;1.90;;;8.40;97.10;;;;;;5044486;28;20472;-70
2024/03/24 11:25:50;;;;;;;7.77;1.90;;;8.30;96.60;;;;;;5045837;28;20450;-69
2024/03/24 11:28:41;;;;;;;7.67;1.57;;;8.20;96.80;;;;;;5045899;28;20881;-70
2024/03/24 11:31:31;;;;;;;6.40;1.40;;;8.00;97.60;;;;;;5045278;28;20505;-69
2024/03/24 11:34:08;;;;;;;7.43;1.47;;;7.90;98.70;;;;;;5043381;28;21414;-72
2024/03/24 11:36:37;;;;;;;7.97;1.63;;;8.00;99.20;;;;;;5045635;28;20475;-70
2024/03/24 11:39:06;;;;;;;7.77;2.00;;;8.10;99.90;;;;;;5043314;28;21013;-71
2024/03/24 11:41:35;;;;;;;6.70;1.53;;;8.20;99.90;;;;;;5054691;28;21099;-69
2024/03/24 11:44:03;;;;;;;8.03;1.83;;;8.60;99.90;;;;;;5066200;28;20521;-69
2024/03/24 11:46:33;;;;;;;6.10;1.30;;;8.80;99.50;;;;;;5038081;28;20865;-70
2024/03/24 11:49:01;;;;;;;7.87;2.03;;;8.80;99.60;;;;;;5047096;28;21480;-70
2024/03/24 11:51:30;;;;;;;8.50;1.60;;;8.90;99.40;;;;;;5037836;28;20991;-71
2024/03/24 11:53:57;;;;;;;9.57;2.00;;;9.00;98.90;;;;;;5051332;28;20487;-70
2024/03/24 11:56:25;;;;;;;6.83;1.60;;;8.70;97.00;;;;;;5052234;28;20446;-71
2024/03/24 11:58:53;;;;;;;8.50;1.57;;;8.40;97.90;;;;;;5059322;28;20439;-72
2024/03/24 12:01:20;;;;;;;6.93;1.40;;;8.10;97.60;;;;;;5053411;28;20456;-73
2024/03/24 12:03:48;;;;;;;7.30;1.70;;;7.70;99.50;;;;;;5068707;28;20465;-70
2024/03/24 12:06:17;;;;;;;7.47;1.67;;;7.40;99.90;;;;;;5048524;28;20452;-70
2024/03/24 12:08:45;;;;;;;6.50;1.67;;;7.30;99.90;;;;;;5054515;28;20479;-72
2024/03/24 12:11:14;;;;;;;8.27;2.03;;;7.40;99.90;;;;;;5056192;28;20450;-72
2024/03/24 12:13:40;;;;;;;7.90;2.03;;;7.40;99.90;;;;;;5033227;28;20515;-70
2024/03/24 12:16:08;;;;;;;6.83;1.50;;;7.50;99.90;;;;;;5036461;28;20982;-70
2024/03/24 12:18:35;;;;;;;8.33;1.80;;;7.40;99.90;;;;;;5048011;28;20484;-73
2024/03/24 12:21:03;;;;;;;7.50;1.47;;;7.40;99.90;;;;;;5037360;28;20451;-69
2024/03/24 12:23:29;;;;;;;8.07;1.63;;;7.40;99.90;;;;;;5037123;28;20474;-71
2024/03/24 12:25:57;;;;;;;7.20;1.40;;;7.50;99.90;;;;;;5043238;28;20446;-70
2024/03/24 12:28:23;;;;;;;10.53;1.93;;;7.30;99.90;;;;;;5048006;28;20477;-71
2024/03/24 12:30:51;;;;;;;6.97;1.07;;;7.20;99.90;;;;;;5039376;28;20453;-70
2024/03/24 12:33:21;;;;;;;9.23;2.37;;;7.00;99.90;;;;;;5033658;28;20464;-70
2024/03/24 12:35:49;;;;;;;6.97;1.80;;;6.80;99.90;;;;;;5042747;28;20524;-69
2024/03/24 12:38:16;;;;;;;8.30;1.43;;;6.70;99.90;;;;;;5052778;28;20446;-72
2024/03/24 12:40:50;;;;;;;7.10;1.70;;;6.70;99.90;;;;;;5033291;28;20953;-69
2024/03/24 12:43:17;;;;;;;13.53;1.93;;;6.70;99.90;;;;;;5045839;28;20462;-70
2024/03/24 12:45:54;;;;;;;6.93;1.40;;;6.70;99.90;;;;;;5041827;28;20539;-69
2024/03/24 12:48:21;;;;;;;9.00;1.80;;;6.70;99.90;;;;;;5040571;28;20494;-72
2024/03/24 12:50:48;;;;;;;7.30;1.50;;;6.70;99.90;;;;;;5035737;28;20445;-70
2024/03/24 12:53:26;;;;;;;7.73;1.53;;;6.80;99.90;;;;;;5037495;28;20476;-72
2024/03/24 12:55:58;;;;;;;7.53;1.33;;;6.90;99.90;;;;;;5047929;28;20968;-75
2024/03/24 12:58:30;;;;;;;7.90;1.77;;;7.00;99.90;;;;;;5051431;28;21033;-70